sensor_id;sensor_type;location;lat;lon;timestamp;P1;durP1;ratioP1;P2;durP2;ratioP2
13764;SDS011;6953;48.810;9.204;2022-11-20T00:01:16;0.60;;;0.60;;
13764;SDS011;6953;48.810;9.204;2022-11-20T00:03:42;0.60;;;0.60;;
13764;SDS011;6953;48.810;9.204;2022-11-20T00:06:08;0.57;;;0.57;;
13764;SDS011;6953;48.810;9.204;2022-11-20T00:08:35;0.57;;;0.57;;
13764;SDS011;6953;48.810;9.204;2022-11-20T00:11:05;0.50;;;0.50;;
13764;SDS011;6953;48.810;9.204;2022-11-20T00:13:35;0.50;;;0.50;;
13764;SDS011;6953;48.810;9.204;2022-11-20T00:16:04;0.50;;;0.50;;
13764;SDS011;6953;48.810;9.204;2022-11-20T00:18:32;0.50;;;0.50;;
13764;SDS011;6953;48.810;9.204;2022-11-20T00:21:05;0.57;;;0.57;;
13764;SDS011;6953;48.810;9.204;2022-11-20T00:23:32;0.40;;;0.40;;
13764;SDS011;6953;48.810;9.204;2022-11-20T00:26:05;0.60;;;0.60;;
13764;SDS011;6953;48.810;9.204;2022-11-20T00:28:32;0.60;;;0.60;;
13764;SDS011;6953;48.810;9.204;2022-11-20T00:31:02;0.50;;;0.50;;
13764;SDS011;6953;48.810;9.204;2022-11-20T00:33:33;0.50;;;0.50;;
13764;SDS011;6953;48.810;9.204;2022-11-20T00:36:03;0.60;;;0.60;;
13764;SDS011;6953;48.810;9.204;2022-11-20T00:38:34;0.70;;;0.70;;
13764;SDS011;6953;48.810;9.204;2022-11-20T00:41:00;0.60;;;0.60;;
13764;SDS011;6953;48.810;9.204;2022-11-20T00:43:27;0.50;;;0.50;;
13764;SDS011;6953;48.810;9.204;2022-11-20T00:45:59;0.57;;;0.57;;
13764;SDS011;6953;48.810;9.204;2022-11-20T00:48:26;0.40;;;0.40;;
13764;SDS011;6953;48.810;9.204;2022-11-20T00:50:52;0.63;;;0.63;;
13764;SDS011;6953;48.810;9.204;2022-11-20T00:53:18;0.67;;;0.67;;
13764;SDS011;6953;48.810;9.204;2022-11-20T00:56:04;0.60;;;0.60;;
13764;SDS011;6953;48.810;9.204;2022-11-20T00:58:32;0.57;;;0.57;;
13764;SDS011;6953;48.810;9.204;2022-11-20T01:01:03;0.60;;;0.60;;
13764;SDS011;6953;48.810;9.204;2022-11-20T01:03:32;0.60;;;0.60;;
13764;SDS011;6953;48.810;9.204;2022-11-20T01:06:02;0.60;;;0.60;;
13764;SDS011;6953;48.810;9.204;2022-11-20T01:08:30;0.60;;;0.60;;
13764;SDS011;6953;48.810;9.204;2022-11-20T01:11:00;0.63;;;0.63;;
13764;SDS011;6953;48.810;9.204;2022-11-20T01:13:27;0.70;;;0.70;;
13764;SDS011;6953;48.810;9.204;2022-11-20T01:16:06;0.70;;;0.70;;
13764;SDS011;6953;48.810;9.204;2022-11-20T01:18:32;0.63;;;0.63;;
13764;SDS011;6953;48.810;9.204;2022-11-20T01:21:02;0.50;;;0.50;;
13764;SDS011;6953;48.810;9.204;2022-11-20T01:23:34;0.60;;;0.60;;
13764;SDS011;6953;48.810;9.204;2022-11-20T01:26:02;0.60;;;0.60;;
13764;SDS011;6953;48.810;9.204;2022-11-20T01:28:29;0.60;;;0.60;;
13764;SDS011;6953;48.810;9.204;2022-11-20T01:30:55;0.67;;;0.67;;
13764;SDS011;6953;48.810;9.204;2022-11-20T01:33:20;0.60;;;0.60;;
13764;SDS011;6953;48.810;9.204;2022-11-20T01:35:46;0.60;;;0.60;;
13764;SDS011;6953;48.810;9.204;2022-11-20T01:38:11;0.50;;;0.50;;
13764;SDS011;6953;48.810;9.204;2022-11-20T01:40:36;0.60;;;0.60;;
13764;SDS011;6953;48.810;9.204;2022-11-20T01:43:10;0.50;;;0.50;;
13764;SDS011;6953;48.810;9.204;2022-11-20T01:48:19;0.50;;;0.50;;
13764;SDS011;6953;48.810;9.204;2022-11-20T01:50:46;0.60;;;0.60;;
13764;SDS011;6953;48.810;9.204;2022-11-20T01:53:13;0.60;;;0.60;;
13764;SDS011;6953;48.810;9.204;2022-11-20T01:55:41;0.60;;;0.60;;
13764;SDS011;6953;48.810;9.204;2022-11-20T01:58:10;0.60;;;0.60;;
13764;SDS011;6953;48.810;9.204;2022-11-20T02:00:37;0.60;;;0.60;;
13764;SDS011;6953;48.810;9.204;2022-11-20T02:03:10;0.60;;;0.60;;
13764;SDS011;6953;48.810;9.204;2022-11-20T02:05:41;0.50;;;0.50;;
13764;SDS011;6953;48.810;9.204;2022-11-20T02:08:08;0.50;;;0.50;;
13764;SDS011;6953;48.810;9.204;2022-11-20T02:10:34;0.60;;;0.60;;
13764;SDS011;6953;48.810;9.204;2022-11-20T02:13:00;0.70;;;0.70;;
13764;SDS011;6953;48.810;9.204;2022-11-20T02:15:43;0.70;;;0.70;;
13764;SDS011;6953;48.810;9.204;2022-11-20T02:18:10;0.70;;;0.70;;
13764;SDS011;6953;48.810;9.204;2022-11-20T02:20:38;0.63;;;0.63;;
13764;SDS011;6953;48.810;9.204;2022-11-20T02:23:09;0.50;;;0.50;;
13764;SDS011;6953;48.810;9.204;2022-11-20T02:25:37;0.60;;;0.60;;
13764;SDS011;6953;48.810;9.204;2022-11-20T02:28:05;0.47;;;0.47;;
13764;SDS011;6953;48.810;9.204;2022-11-20T02:30:30;0.50;;;0.50;;
13764;SDS011;6953;48.810;9.204;2022-11-20T02:32:57;0.50;;;0.50;;
13764;SDS011;6953;48.810;9.204;2022-11-20T02:37:48;0.50;;;0.50;;
13764;SDS011;6953;48.810;9.204;2022-11-20T02:40:15;0.60;;;0.60;;
13764;SDS011;6953;48.810;9.204;2022-11-20T02:42:41;0.60;;;0.60;;
13764;SDS011;6953;48.810;9.204;2022-11-20T02:45:06;0.70;;;0.70;;
13764;SDS011;6953;48.810;9.204;2022-11-20T02:47:32;0.60;;;0.60;;
13764;SDS011;6953;48.810;9.204;2022-11-20T02:49:58;0.50;;;0.50;;
13764;SDS011;6953;48.810;9.204;2022-11-20T02:52:24;0.50;;;0.50;;
13764;SDS011;6953;48.810;9.204;2022-11-20T02:54:50;0.60;;;0.60;;
13764;SDS011;6953;48.810;9.204;2022-11-20T02:57:15;0.60;;;0.60;;
13764;SDS011;6953;48.810;9.204;2022-11-20T02:59:41;0.50;;;0.50;;
13764;SDS011;6953;48.810;9.204;2022-11-20T03:02:06;0.40;;;0.40;;
13764;SDS011;6953;48.810;9.204;2022-11-20T03:04:31;0.50;;;0.50;;
13764;SDS011;6953;48.810;9.204;2022-11-20T03:06:57;0.50;;;0.50;;
13764;SDS011;6953;48.810;9.204;2022-11-20T03:09:22;0.50;;;0.50;;
13764;SDS011;6953;48.810;9.204;2022-11-20T03:11:47;0.57;;;0.57;;
13764;SDS011;6953;48.810;9.204;2022-11-20T03:14:13;0.60;;;0.60;;
13764;SDS011;6953;48.810;9.204;2022-11-20T03:16:39;0.60;;;0.60;;
13764;SDS011;6953;48.810;9.204;2022-11-20T03:19:04;0.50;;;0.50;;
13764;SDS011;6953;48.810;9.204;2022-11-20T03:21:30;0.60;;;0.60;;
13764;SDS011;6953;48.810;9.204;2022-11-20T03:23:55;0.60;;;0.60;;
13764;SDS011;6953;48.810;9.204;2022-11-20T03:26:21;0.60;;;0.60;;
13764;SDS011;6953;48.810;9.204;2022-11-20T03:28:49;0.50;;;0.50;;
13764;SDS011;6953;48.810;9.204;2022-11-20T03:31:20;0.60;;;0.60;;
13764;SDS011;6953;48.810;9.204;2022-11-20T03:33:48;0.60;;;0.60;;
13764;SDS011;6953;48.810;9.204;2022-11-20T03:36:14;0.50;;;0.50;;
13764;SDS011;6953;48.810;9.204;2022-11-20T03:38:41;0.60;;;0.60;;
13764;SDS011;6953;48.810;9.204;2022-11-20T03:41:07;0.60;;;0.60;;
13764;SDS011;6953;48.810;9.204;2022-11-20T03:43:38;0.60;;;0.60;;
13764;SDS011;6953;48.810;9.204;2022-11-20T03:46:05;0.60;;;0.60;;
13764;SDS011;6953;48.810;9.204;2022-11-20T03:48:30;0.60;;;0.60;;
13764;SDS011;6953;48.810;9.204;2022-11-20T03:53:42;0.53;;;0.53;;
13764;SDS011;6953;48.810;9.204;2022-11-20T03:56:09;0.57;;;0.57;;
13764;SDS011;6953;48.810;9.204;2022-11-20T03:58:36;0.53;;;0.53;;
13764;SDS011;6953;48.810;9.204;2022-11-20T04:01:16;0.50;;;0.50;;
13764;SDS011;6953;48.810;9.204;2022-11-20T04:03:43;0.60;;;0.60;;
13764;SDS011;6953;48.810;9.204;2022-11-20T04:08:45;0.40;;;0.40;;
13764;SDS011;6953;48.810;9.204;2022-11-20T04:13:40;0.60;;;0.60;;
13764;SDS011;6953;48.810;9.204;2022-11-20T04:16:07;0.70;;;0.70;;
13764;SDS011;6953;48.810;9.204;2022-11-20T04:18:33;0.70;;;0.70;;
13764;SDS011;6953;48.810;9.204;2022-11-20T04:20:59;0.60;;;0.60;;
13764;SDS011;6953;48.810;9.204;2022-11-20T04:23:24;0.60;;;0.60;;
13764;SDS011;6953;48.810;9.204;2022-11-20T04:25:50;0.60;;;0.60;;
13764;SDS011;6953;48.810;9.204;2022-11-20T04:28:15;0.60;;;0.60;;
13764;SDS011;6953;48.810;9.204;2022-11-20T04:30:41;0.70;;;0.70;;
13764;SDS011;6953;48.810;9.204;2022-11-20T04:33:06;0.60;;;0.60;;
13764;SDS011;6953;48.810;9.204;2022-11-20T04:35:35;0.60;;;0.60;;
13764;SDS011;6953;48.810;9.204;2022-11-20T04:38:01;0.60;;;0.60;;
13764;SDS011;6953;48.810;9.204;2022-11-20T04:40:27;0.60;;;0.60;;
13764;SDS011;6953;48.810;9.204;2022-11-20T04:42:53;0.60;;;0.60;;
13764;SDS011;6953;48.810;9.204;2022-11-20T04:45:19;0.60;;;0.60;;
13764;SDS011;6953;48.810;9.204;2022-11-20T04:47:44;0.60;;;0.60;;
13764;SDS011;6953;48.810;9.204;2022-11-20T04:50:10;0.50;;;0.50;;
13764;SDS011;6953;48.810;9.204;2022-11-20T04:52:35;0.40;;;0.40;;
13764;SDS011;6953;48.810;9.204;2022-11-20T04:55:00;0.50;;;0.50;;
13764;SDS011;6953;48.810;9.204;2022-11-20T04:57:26;0.50;;;0.50;;
13764;SDS011;6953;48.810;9.204;2022-11-20T04:59:51;0.60;;;0.60;;
13764;SDS011;6953;48.810;9.204;2022-11-20T05:02:16;0.50;;;0.50;;
13764;SDS011;6953;48.810;9.204;2022-11-20T05:04:42;0.50;;;0.50;;
13764;SDS011;6953;48.810;9.204;2022-11-20T05:07:07;0.53;;;0.53;;
13764;SDS011;6953;48.810;9.204;2022-11-20T05:09:32;0.60;;;0.60;;
13764;SDS011;6953;48.810;9.204;2022-11-20T05:11:58;0.50;;;0.50;;
13764;SDS011;6953;48.810;9.204;2022-11-20T05:14:23;0.60;;;0.60;;
13764;SDS011;6953;48.810;9.204;2022-11-20T05:16:48;0.50;;;0.50;;
13764;SDS011;6953;48.810;9.204;2022-11-20T05:19:14;0.50;;;0.50;;
13764;SDS011;6953;48.810;9.204;2022-11-20T05:21:39;0.50;;;0.50;;
13764;SDS011;6953;48.810;9.204;2022-11-20T05:24:04;0.50;;;0.50;;
13764;SDS011;6953;48.810;9.204;2022-11-20T05:26:30;0.60;;;0.60;;
13764;SDS011;6953;48.810;9.204;2022-11-20T05:28:56;0.60;;;0.60;;
13764;SDS011;6953;48.810;9.204;2022-11-20T05:31:22;0.60;;;0.60;;
13764;SDS011;6953;48.810;9.204;2022-11-20T05:33:49;0.63;;;0.63;;
13764;SDS011;6953;48.810;9.204;2022-11-20T05:36:14;0.50;;;0.50;;
13764;SDS011;6953;48.810;9.204;2022-11-20T05:38:40;0.50;;;0.50;;
13764;SDS011;6953;48.810;9.204;2022-11-20T05:41:07;0.60;;;0.60;;
13764;SDS011;6953;48.810;9.204;2022-11-20T05:43:33;0.50;;;0.50;;
13764;SDS011;6953;48.810;9.204;2022-11-20T05:45:59;0.60;;;0.60;;
13764;SDS011;6953;48.810;9.204;2022-11-20T05:48:25;0.60;;;0.60;;
13764;SDS011;6953;48.810;9.204;2022-11-20T05:50:50;0.50;;;0.50;;
13764;SDS011;6953;48.810;9.204;2022-11-20T05:53:15;0.40;;;0.40;;
13764;SDS011;6953;48.810;9.204;2022-11-20T05:55:41;0.50;;;0.50;;
13764;SDS011;6953;48.810;9.204;2022-11-20T05:58:07;0.60;;;0.60;;
13764;SDS011;6953;48.810;9.204;2022-11-20T06:00:32;0.50;;;0.50;;
13764;SDS011;6953;48.810;9.204;2022-11-20T06:02:57;0.60;;;0.60;;
13764;SDS011;6953;48.810;9.204;2022-11-20T06:05:23;0.50;;;0.50;;
13764;SDS011;6953;48.810;9.204;2022-11-20T06:07:48;0.60;;;0.60;;
13764;SDS011;6953;48.810;9.204;2022-11-20T06:10:13;0.40;;;0.40;;
13764;SDS011;6953;48.810;9.204;2022-11-20T06:12:39;0.60;;;0.60;;
13764;SDS011;6953;48.810;9.204;2022-11-20T06:15:04;0.50;;;0.50;;
13764;SDS011;6953;48.810;9.204;2022-11-20T06:17:30;0.50;;;0.50;;
13764;SDS011;6953;48.810;9.204;2022-11-20T06:19:55;0.60;;;0.60;;
13764;SDS011;6953;48.810;9.204;2022-11-20T06:22:21;0.60;;;0.60;;
13764;SDS011;6953;48.810;9.204;2022-11-20T06:24:46;0.57;;;0.57;;
13764;SDS011;6953;48.810;9.204;2022-11-20T06:27:12;0.57;;;0.57;;
13764;SDS011;6953;48.810;9.204;2022-11-20T06:29:37;0.60;;;0.60;;
13764;SDS011;6953;48.810;9.204;2022-11-20T06:32:03;0.60;;;0.60;;
13764;SDS011;6953;48.810;9.204;2022-11-20T06:34:28;0.60;;;0.60;;
13764;SDS011;6953;48.810;9.204;2022-11-20T06:36:53;0.50;;;0.50;;
13764;SDS011;6953;48.810;9.204;2022-11-20T06:39:19;0.60;;;0.60;;
13764;SDS011;6953;48.810;9.204;2022-11-20T06:41:44;0.50;;;0.50;;
13764;SDS011;6953;48.810;9.204;2022-11-20T06:44:10;0.60;;;0.60;;
13764;SDS011;6953;48.810;9.204;2022-11-20T06:46:35;0.63;;;0.63;;
13764;SDS011;6953;48.810;9.204;2022-11-20T06:49:00;0.50;;;0.50;;
13764;SDS011;6953;48.810;9.204;2022-11-20T06:51:26;0.50;;;0.50;;
13764;SDS011;6953;48.810;9.204;2022-11-20T06:53:51;0.60;;;0.60;;
13764;SDS011;6953;48.810;9.204;2022-11-20T06:56:16;0.50;;;0.50;;
13764;SDS011;6953;48.810;9.204;2022-11-20T06:58:42;0.50;;;0.50;;
13764;SDS011;6953;48.810;9.204;2022-11-20T07:01:09;0.50;;;0.50;;
13764;SDS011;6953;48.810;9.204;2022-11-20T07:03:36;0.50;;;0.50;;
13764;SDS011;6953;48.810;9.204;2022-11-20T07:06:02;0.40;;;0.40;;
13764;SDS011;6953;48.810;9.204;2022-11-20T07:08:28;0.60;;;0.60;;
13764;SDS011;6953;48.810;9.204;2022-11-20T07:10:58;0.50;;;0.50;;
13764;SDS011;6953;48.810;9.204;2022-11-20T07:13:24;0.50;;;0.50;;
13764;SDS011;6953;48.810;9.204;2022-11-20T07:15:51;0.53;;;0.53;;
13764;SDS011;6953;48.810;9.204;2022-11-20T07:18:16;0.50;;;0.50;;
13764;SDS011;6953;48.810;9.204;2022-11-20T07:20:41;0.70;;;0.70;;
13764;SDS011;6953;48.810;9.204;2022-11-20T07:23:07;0.53;;;0.53;;
13764;SDS011;6953;48.810;9.204;2022-11-20T07:25:32;0.40;;;0.40;;
13764;SDS011;6953;48.810;9.204;2022-11-20T07:27:58;0.60;;;0.60;;
13764;SDS011;6953;48.810;9.204;2022-11-20T07:30:24;0.50;;;0.50;;
13764;SDS011;6953;48.810;9.204;2022-11-20T07:32:52;0.63;;;0.63;;
13764;SDS011;6953;48.810;9.204;2022-11-20T07:35:18;0.50;;;0.50;;
13764;SDS011;6953;48.810;9.204;2022-11-20T07:37:44;0.50;;;0.50;;
13764;SDS011;6953;48.810;9.204;2022-11-20T07:40:11;0.57;;;0.57;;
13764;SDS011;6953;48.810;9.204;2022-11-20T07:42:37;0.50;;;0.50;;
13764;SDS011;6953;48.810;9.204;2022-11-20T07:45:02;0.60;;;0.60;;
13764;SDS011;6953;48.810;9.204;2022-11-20T07:47:28;0.60;;;0.60;;
13764;SDS011;6953;48.810;9.204;2022-11-20T07:49:53;0.50;;;0.50;;
13764;SDS011;6953;48.810;9.204;2022-11-20T07:52:18;0.50;;;0.50;;
13764;SDS011;6953;48.810;9.204;2022-11-20T07:54:44;0.60;;;0.60;;
13764;SDS011;6953;48.810;9.204;2022-11-20T07:57:09;0.50;;;0.50;;
13764;SDS011;6953;48.810;9.204;2022-11-20T07:59:35;0.60;;;0.60;;
13764;SDS011;6953;48.810;9.204;2022-11-20T08:02:00;0.60;;;0.60;;
13764;SDS011;6953;48.810;9.204;2022-11-20T08:04:26;0.50;;;0.50;;
13764;SDS011;6953;48.810;9.204;2022-11-20T08:06:51;0.60;;;0.60;;
13764;SDS011;6953;48.810;9.204;2022-11-20T08:09:17;0.52;;;0.52;;
13764;SDS011;6953;48.810;9.204;2022-11-20T08:11:42;0.50;;;0.50;;
13764;SDS011;6953;48.810;9.204;2022-11-20T08:14:26;0.45;;;0.45;;
13764;SDS011;6953;48.810;9.204;2022-11-20T08:16:52;0.50;;;0.50;;
13764;SDS011;6953;48.810;9.204;2022-11-20T08:19:18;0.50;;;0.50;;
13764;SDS011;6953;48.810;9.204;2022-11-20T08:21:43;0.60;;;0.60;;
13764;SDS011;6953;48.810;9.204;2022-11-20T08:24:10;0.50;;;0.50;;
13764;SDS011;6953;48.810;9.204;2022-11-20T08:26:36;0.50;;;0.50;;
13764;SDS011;6953;48.810;9.204;2022-11-20T08:29:03;0.50;;;0.50;;
13764;SDS011;6953;48.810;9.204;2022-11-20T08:31:29;0.50;;;0.50;;
13764;SDS011;6953;48.810;9.204;2022-11-20T08:33:55;0.40;;;0.40;;
13764;SDS011;6953;48.810;9.204;2022-11-20T08:36:21;0.50;;;0.50;;
13764;SDS011;6953;48.810;9.204;2022-11-20T08:38:48;0.52;;;0.52;;
13764;SDS011;6953;48.810;9.204;2022-11-20T08:41:17;0.40;;;0.40;;
13764;SDS011;6953;48.810;9.204;2022-11-20T08:43:49;0.47;;;0.47;;
13764;SDS011;6953;48.810;9.204;2022-11-20T08:46:15;0.50;;;0.50;;
13764;SDS011;6953;48.810;9.204;2022-11-20T08:48:41;0.60;;;0.60;;
13764;SDS011;6953;48.810;9.204;2022-11-20T08:51:07;0.50;;;0.50;;
13764;SDS011;6953;48.810;9.204;2022-11-20T08:53:33;0.60;;;0.60;;
13764;SDS011;6953;48.810;9.204;2022-11-20T08:55:58;0.50;;;0.50;;
13764;SDS011;6953;48.810;9.204;2022-11-20T08:58:24;0.50;;;0.50;;
13764;SDS011;6953;48.810;9.204;2022-11-20T09:00:50;0.50;;;0.50;;
13764;SDS011;6953;48.810;9.204;2022-11-20T09:03:15;0.35;;;0.35;;
13764;SDS011;6953;48.810;9.204;2022-11-20T09:05:41;0.40;;;0.40;;
13764;SDS011;6953;48.810;9.204;2022-11-20T09:08:07;0.50;;;0.50;;
13764;SDS011;6953;48.810;9.204;2022-11-20T09:10:33;0.30;;;0.30;;
13764;SDS011;6953;48.810;9.204;2022-11-20T09:12:59;0.50;;;0.50;;
13764;SDS011;6953;48.810;9.204;2022-11-20T09:15:24;0.50;;;0.50;;
13764;SDS011;6953;48.810;9.204;2022-11-20T09:17:54;0.40;;;0.40;;
13764;SDS011;6953;48.810;9.204;2022-11-20T09:20:20;0.47;;;0.47;;
13764;SDS011;6953;48.810;9.204;2022-11-20T09:22:46;0.40;;;0.40;;
13764;SDS011;6953;48.810;9.204;2022-11-20T09:25:12;0.40;;;0.40;;
13764;SDS011;6953;48.810;9.204;2022-11-20T09:27:37;0.50;;;0.50;;
13764;SDS011;6953;48.810;9.204;2022-11-20T09:30:03;0.52;;;0.52;;
13764;SDS011;6953;48.810;9.204;2022-11-20T09:32:29;0.40;;;0.40;;
13764;SDS011;6953;48.810;9.204;2022-11-20T09:34:54;0.50;;;0.50;;
13764;SDS011;6953;48.810;9.204;2022-11-20T09:37:19;0.40;;;0.40;;
13764;SDS011;6953;48.810;9.204;2022-11-20T09:39:45;0.40;;;0.40;;
13764;SDS011;6953;48.810;9.204;2022-11-20T09:47:33;0.40;;;0.40;;
13764;SDS011;6953;48.810;9.204;2022-11-20T09:55:34;0.50;;;0.50;;
13764;SDS011;6953;48.810;9.204;2022-11-20T09:58:01;0.50;;;0.50;;
13764;SDS011;6953;48.810;9.204;2022-11-20T10:00:30;0.50;;;0.50;;
13764;SDS011;6953;48.810;9.204;2022-11-20T10:05:47;0.50;;;0.50;;
13764;SDS011;6953;48.810;9.204;2022-11-20T10:19:23;0.45;;;0.45;;
13764;SDS011;6953;48.810;9.204;2022-11-20T10:30:31;0.60;;;0.60;;
13764;SDS011;6953;48.810;9.204;2022-11-20T10:33:08;0.50;;;0.50;;
13764;SDS011;6953;48.810;9.204;2022-11-20T10:35:45;0.60;;;0.60;;
13764;SDS011;6953;48.810;9.204;2022-11-20T10:38:23;0.60;;;0.60;;
13764;SDS011;6953;48.810;9.204;2022-11-20T10:40:56;0.60;;;0.60;;
13764;SDS011;6953;48.810;9.204;2022-11-20T10:43:44;0.53;;;0.53;;
13764;SDS011;6953;48.810;9.204;2022-11-20T10:46:11;0.60;;;0.60;;
13764;SDS011;6953;48.810;9.204;2022-11-20T10:48:42;0.50;;;0.50;;
13764;SDS011;6953;48.810;9.204;2022-11-20T10:56:50;0.60;;;0.60;;
13764;SDS011;6953;48.810;9.204;2022-11-20T11:01:58;0.60;;;0.60;;
13764;SDS011;6953;48.810;9.204;2022-11-20T11:07:10;0.60;;;0.60;;
13764;SDS011;6953;48.810;9.204;2022-11-20T11:09:43;0.50;;;0.50;;
13764;SDS011;6953;48.810;9.204;2022-11-20T11:12:12;0.50;;;0.50;;
13764;SDS011;6953;48.810;9.204;2022-11-20T11:14:51;0.40;;;0.40;;
13764;SDS011;6953;48.810;9.204;2022-11-20T11:17:19;0.50;;;0.50;;
13764;SDS011;6953;48.810;9.204;2022-11-20T11:22:42;0.60;;;0.60;;
13764;SDS011;6953;48.810;9.204;2022-11-20T11:25:18;0.60;;;0.60;;
13764;SDS011;6953;48.810;9.204;2022-11-20T11:27:49;0.50;;;0.50;;
13764;SDS011;6953;48.810;9.204;2022-11-20T11:30:16;0.50;;;0.50;;
13764;SDS011;6953;48.810;9.204;2022-11-20T11:32:43;0.40;;;0.40;;
13764;SDS011;6953;48.810;9.204;2022-11-20T11:35:23;0.40;;;0.40;;
13764;SDS011;6953;48.810;9.204;2022-11-20T11:37:51;0.30;;;0.30;;
13764;SDS011;6953;48.810;9.204;2022-11-20T11:40:19;0.40;;;0.40;;
13764;SDS011;6953;48.810;9.204;2022-11-20T11:42:47;0.30;;;0.30;;
13764;SDS011;6953;48.810;9.204;2022-11-20T11:45:18;0.25;;;0.25;;
13764;SDS011;6953;48.810;9.204;2022-11-20T11:47:45;0.20;;;0.20;;
13764;SDS011;6953;48.810;9.204;2022-11-20T11:50:14;0.20;;;0.20;;
13764;SDS011;6953;48.810;9.204;2022-11-20T11:52:55;0.20;;;0.20;;
13764;SDS011;6953;48.810;9.204;2022-11-20T12:01:03;0.13;;;0.13;;
13764;SDS011;6953;48.810;9.204;2022-11-20T12:03:50;0.10;;;0.10;;
13764;SDS011;6953;48.810;9.204;2022-11-20T12:06:26;0.20;;;0.20;;
13764;SDS011;6953;48.810;9.204;2022-11-20T12:08:58;0.10;;;0.10;;
13764;SDS011;6953;48.810;9.204;2022-11-20T12:11:34;0.20;;;0.20;;
13764;SDS011;6953;48.810;9.204;2022-11-20T12:16:52;0.17;;;0.17;;
13764;SDS011;6953;48.810;9.204;2022-11-20T12:19:19;0.10;;;0.10;;
13764;SDS011;6953;48.810;9.204;2022-11-20T12:24:35;0.10;;;0.10;;
13764;SDS011;6953;48.810;9.204;2022-11-20T12:30:13;0.10;;;0.10;;
13764;SDS011;6953;48.810;9.204;2022-11-20T12:44:04;0.17;;;0.17;;
13764;SDS011;6953;48.810;9.204;2022-11-20T12:47:17;0.20;;;0.20;;
13764;SDS011;6953;48.810;9.204;2022-11-20T12:53:10;0.20;;;0.20;;
13764;SDS011;6953;48.810;9.204;2022-11-20T12:58:35;0.30;;;0.30;;
13764;SDS011;6953;48.810;9.204;2022-11-20T13:04:07;0.20;;;0.20;;
13764;SDS011;6953;48.810;9.204;2022-11-20T13:06:33;0.20;;;0.20;;
13764;SDS011;6953;48.810;9.204;2022-11-20T13:09:00;0.20;;;0.20;;
13764;SDS011;6953;48.810;9.204;2022-11-20T13:19:25;0.40;;;0.40;;
13764;SDS011;6953;48.810;9.204;2022-11-20T13:21:53;0.40;;;0.40;;
13764;SDS011;6953;48.810;9.204;2022-11-20T13:29:30;0.32;;;0.32;;
13764;SDS011;6953;48.810;9.204;2022-11-20T13:32:29;0.22;;;0.22;;
13764;SDS011;6953;48.810;9.204;2022-11-20T13:34:52;0.30;;;0.30;;
13764;SDS011;6953;48.810;9.204;2022-11-20T13:37:33;0.40;;;0.40;;
13764;SDS011;6953;48.810;9.204;2022-11-20T13:42:31;0.32;;;0.32;;
13764;SDS011;6953;48.810;9.204;2022-11-20T13:48:23;0.40;;;0.40;;
13764;SDS011;6953;48.810;9.204;2022-11-20T14:02:23;0.40;;;0.40;;
13764;SDS011;6953;48.810;9.204;2022-11-20T14:04:54;0.40;;;0.40;;
13764;SDS011;6953;48.810;9.204;2022-11-20T14:07:27;0.50;;;0.50;;
13764;SDS011;6953;48.810;9.204;2022-11-20T14:10:01;0.50;;;0.50;;
13764;SDS011;6953;48.810;9.204;2022-11-20T14:12:30;0.40;;;0.40;;
13764;SDS011;6953;48.810;9.204;2022-11-20T14:14:57;0.50;;;0.50;;
13764;SDS011;6953;48.810;9.204;2022-11-20T14:17:24;0.43;;;0.43;;
13764;SDS011;6953;48.810;9.204;2022-11-20T14:19:58;0.50;;;0.50;;
13764;SDS011;6953;48.810;9.204;2022-11-20T14:22:27;0.40;;;0.40;;
13764;SDS011;6953;48.810;9.204;2022-11-20T14:25:06;0.50;;;0.50;;
13764;SDS011;6953;48.810;9.204;2022-11-20T14:27:57;0.50;;;0.50;;
13764;SDS011;6953;48.810;9.204;2022-11-20T14:30:25;0.50;;;0.50;;
13764;SDS011;6953;48.810;9.204;2022-11-20T14:33:01;0.47;;;0.47;;
13764;SDS011;6953;48.810;9.204;2022-11-20T14:35:29;0.50;;;0.50;;
13764;SDS011;6953;48.810;9.204;2022-11-20T14:37:56;0.50;;;0.50;;
13764;SDS011;6953;48.810;9.204;2022-11-20T14:40:27;0.50;;;0.50;;
13764;SDS011;6953;48.810;9.204;2022-11-20T14:43:01;0.47;;;0.47;;
13764;SDS011;6953;48.810;9.204;2022-11-20T14:45:29;0.50;;;0.50;;
13764;SDS011;6953;48.810;9.204;2022-11-20T14:47:56;0.32;;;0.32;;
13764;SDS011;6953;48.810;9.204;2022-11-20T14:50:26;0.50;;;0.50;;
13764;SDS011;6953;48.810;9.204;2022-11-20T14:52:54;0.32;;;0.32;;
13764;SDS011;6953;48.810;9.204;2022-11-20T14:58:03;0.50;;;0.50;;
13764;SDS011;6953;48.810;9.204;2022-11-20T15:00:29;0.40;;;0.40;;
13764;SDS011;6953;48.810;9.204;2022-11-20T15:02:56;0.50;;;0.50;;
13764;SDS011;6953;48.810;9.204;2022-11-20T15:05:23;0.40;;;0.40;;
13764;SDS011;6953;48.810;9.204;2022-11-20T15:07:52;0.40;;;0.40;;
13764;SDS011;6953;48.810;9.204;2022-11-20T15:10:30;0.40;;;0.40;;
13764;SDS011;6953;48.810;9.204;2022-11-20T15:12:57;0.50;;;0.50;;
13764;SDS011;6953;48.810;9.204;2022-11-20T15:16:12;0.50;;;0.50;;
13764;SDS011;6953;48.810;9.204;2022-11-20T15:18:18;0.50;;;0.50;;
13764;SDS011;6953;48.810;9.204;2022-11-20T15:21:06;0.40;;;0.40;;
13764;SDS011;6953;48.810;9.204;2022-11-20T15:23:35;0.50;;;0.50;;
13764;SDS011;6953;48.810;9.204;2022-11-20T15:26:01;0.50;;;0.50;;
13764;SDS011;6953;48.810;9.204;2022-11-20T15:28:33;0.50;;;0.50;;
13764;SDS011;6953;48.810;9.204;2022-11-20T15:31:00;0.50;;;0.50;;
13764;SDS011;6953;48.810;9.204;2022-11-20T15:33:28;0.50;;;0.50;;
13764;SDS011;6953;48.810;9.204;2022-11-20T15:35:53;0.50;;;0.50;;
13764;SDS011;6953;48.810;9.204;2022-11-20T15:38:18;0.60;;;0.60;;
13764;SDS011;6953;48.810;9.204;2022-11-20T15:40:44;0.52;;;0.52;;
13764;SDS011;6953;48.810;9.204;2022-11-20T15:43:09;0.47;;;0.47;;
13764;SDS011;6953;48.810;9.204;2022-11-20T15:45:42;0.57;;;0.57;;
13764;SDS011;6953;48.810;9.204;2022-11-20T15:48:15;0.50;;;0.50;;
13764;SDS011;6953;48.810;9.204;2022-11-20T15:53:19;0.40;;;0.40;;
13764;SDS011;6953;48.810;9.204;2022-11-20T15:55:45;0.60;;;0.60;;
13764;SDS011;6953;48.810;9.204;2022-11-20T15:58:10;0.55;;;0.55;;
13764;SDS011;6953;48.810;9.204;2022-11-20T16:00:36;0.50;;;0.50;;
13764;SDS011;6953;48.810;9.204;2022-11-20T16:03:01;0.50;;;0.50;;
13764;SDS011;6953;48.810;9.204;2022-11-20T16:05:28;0.65;;;0.65;;
13764;SDS011;6953;48.810;9.204;2022-11-20T16:07:53;0.60;;;0.60;;
13764;SDS011;6953;48.810;9.204;2022-11-20T16:10:19;0.47;;;0.47;;
13764;SDS011;6953;48.810;9.204;2022-11-20T16:12:44;0.60;;;0.60;;
13764;SDS011;6953;48.810;9.204;2022-11-20T16:15:28;0.50;;;0.50;;
13764;SDS011;6953;48.810;9.204;2022-11-20T16:18:13;0.50;;;0.50;;
13764;SDS011;6953;48.810;9.204;2022-11-20T16:20:40;0.53;;;0.53;;
13764;SDS011;6953;48.810;9.204;2022-11-20T16:23:06;0.47;;;0.47;;
13764;SDS011;6953;48.810;9.204;2022-11-20T16:25:32;0.50;;;0.50;;
13764;SDS011;6953;48.810;9.204;2022-11-20T16:27:58;0.40;;;0.40;;
13764;SDS011;6953;48.810;9.204;2022-11-20T16:30:23;0.47;;;0.47;;
13764;SDS011;6953;48.810;9.204;2022-11-20T16:32:49;0.50;;;0.50;;
13764;SDS011;6953;48.810;9.204;2022-11-20T16:35:14;0.60;;;0.60;;
13764;SDS011;6953;48.810;9.204;2022-11-20T16:37:40;0.50;;;0.50;;
13764;SDS011;6953;48.810;9.204;2022-11-20T16:40:07;0.43;;;0.43;;
13764;SDS011;6953;48.810;9.204;2022-11-20T16:42:33;0.40;;;0.40;;
13764;SDS011;6953;48.810;9.204;2022-11-20T16:44:59;0.53;;;0.53;;
13764;SDS011;6953;48.810;9.204;2022-11-20T16:47:24;0.60;;;0.60;;
13764;SDS011;6953;48.810;9.204;2022-11-20T16:49:50;0.40;;;0.40;;
13764;SDS011;6953;48.810;9.204;2022-11-20T16:52:15;0.50;;;0.50;;
13764;SDS011;6953;48.810;9.204;2022-11-20T16:54:41;0.50;;;0.50;;
13764;SDS011;6953;48.810;9.204;2022-11-20T16:57:06;0.50;;;0.50;;
13764;SDS011;6953;48.810;9.204;2022-11-20T16:59:32;0.60;;;0.60;;
13764;SDS011;6953;48.810;9.204;2022-11-20T17:01:57;0.68;;;0.68;;
13764;SDS011;6953;48.810;9.204;2022-11-20T17:04:23;0.60;;;0.60;;
13764;SDS011;6953;48.810;9.204;2022-11-20T17:06:49;0.47;;;0.47;;
13764;SDS011;6953;48.810;9.204;2022-11-20T17:09:14;0.60;;;0.60;;
13764;SDS011;6953;48.810;9.204;2022-11-20T17:11:40;0.60;;;0.60;;
13764;SDS011;6953;48.810;9.204;2022-11-20T17:14:06;0.50;;;0.50;;
13764;SDS011;6953;48.810;9.204;2022-11-20T17:16:32;0.50;;;0.50;;